Time;durP1;ratioP1;P1;durP2;ratioP2;P2;SDS_P1;SDS_P2;PMS_P1;PMS_P2;Temp;Humidity;BMP_temperature;BMP_pressure;BME280_temperature;BME280_humidity;BME280_pressure;Samples;Min_cycle;Max_cycle;Signal;HPM_P1;HPM_P2
2023/10/03 00:00:38;;;;;;;7.20;1.10;;;;;;;12.87;80.17;100939.41;5070876;28;20125;-77
2023/10/03 00:03:08;;;;;;;5.97;1.27;;;;;;;12.86;80.17;100934.19;5067840;28;20550;-76
2023/10/03 00:05:35;;;;;;;5.90;1.30;;;;;;;12.87;80.05;100938.56;5065980;28;20072;-79
2023/10/03 00:08:05;;;;;;;5.25;1.17;;;;;;;12.83;80.25;100928.16;5068119;28;20049;-77
2023/10/03 00:10:35;;;;;;;3.25;1.00;;;;;;;12.86;80.19;100934.19;5065886;28;20048;-76
2023/10/03 00:13:07;;;;;;;5.32;1.23;;;;;;;12.85;80.10;100929.88;5070045;28;20579;-76
2023/10/03 00:15:34;;;;;;;8.40;1.48;;;;;;;12.85;80.02;100933.34;5067571;28;20048;-78
2023/10/03 00:18:02;;;;;;;4.50;1.02;;;;;;;12.83;80.21;100928.16;5067719;28;20390;-76
2023/10/03 00:20:29;;;;;;;5.50;1.13;;;;;;;12.82;80.08;100926.41;5069270;28;20051;-77
2023/10/03 00:22:55;;;;;;;5.25;1.00;;;;;;;12.83;80.02;100933.41;5051573;28;20048;-76
2023/10/03 00:25:23;;;;;;;4.40;1.08;;;;;;;12.83;80.11;100928.16;5068068;28;20068;-77
2023/10/03 00:27:52;;;;;;;4.78;1.35;;;;;;;12.82;80.01;100931.66;5062265;28;20047;-77
2023/10/03 00:30:23;;;;;;;6.85;1.25;;;;;;;12.78;79.91;100919.53;5060006;28;20036;-76
2023/10/03 00:32:51;;;;;;;5.70;1.33;;;;;;;12.82;79.92;100921.16;5067121;28;20051;-77
2023/10/03 00:35:19;;;;;;;6.05;1.13;;;;;;;12.79;79.80;100920.38;5065835;28;20053;-76
2023/10/03 00:37:47;;;;;;;6.10;1.02;;;;;;;12.76;79.77;100916.09;5077414;28;20041;-77
2023/10/03 00:40:25;;;;;;;4.45;1.02;;;;;;;12.80;79.96;100927.34;5069332;28;20056;-77
2023/10/03 00:42:57;;;;;;;4.13;0.90;;;;;;;12.78;79.88;100916.91;5062754;28;20126;-79
2023/10/03 00:45:26;;;;;;;5.63;1.70;;;;;;;12.78;79.85;100919.53;5063604;28;20049;-77
2023/10/03 00:47:54;;;;;;;8.90;1.83;;;;;;;12.76;79.66;100913.47;5067079;28;20048;-77
2023/10/03 00:50:23;;;;;;;4.57;0.98;;;;;;;12.75;79.59;100909.13;5063515;28;20135;-77
2023/10/03 00:52:55;;;;;;;3.35;0.75;;;;;;;12.75;79.67;100903.88;5061937;28;20133;-77
2023/10/03 00:55:23;;;;;;;5.65;1.10;;;;;;;12.74;79.49;100914.41;5069307;28;20044;-81
2023/10/03 00:58:01;;;;;;;5.68;1.48;;;;;;;12.69;79.56;100906.63;5069789;28;20429;-77
2023/10/03 01:00:31;;;;;;;3.97;1.25;;;;;;;12.71;79.65;100904.84;5067671;28;20044;-77
2023/10/03 01:02:58;;;;;;;6.10;0.90;;;;;;;12.70;79.51;100911.00;5068556;28;20041;-80
2023/10/03 01:05:25;;;;;;;4.43;1.25;;;;;;;12.65;79.71;100904.16;5072024;28;20489;-78
2023/10/03 01:07:52;;;;;;;5.65;0.88;;;;;;;12.68;79.63;100907.56;5072374;28;20058;-77
2023/10/03 01:10:20;;;;;;;4.65;1.08;;;;;;;12.65;79.45;100905.00;5075810;28;20084;-77
2023/10/03 01:12:48;;;;;;;9.65;2.20;;;;;;;12.66;79.66;100898.00;5073718;28;20056;-76
2023/10/03 01:15:18;;;;;;;7.20;1.15;;;;;;;12.64;79.59;100895.44;5067038;28;20053;-76
2023/10/03 01:17:49;;;;;;;4.32;1.10;;;;;;;12.62;79.43;100897.22;5065030;28;20102;-78
2023/10/03 01:20:24;;;;;;;4.88;0.95;;;;;;;12.62;79.44;100899.00;5055950;28;20749;-77
2023/10/03 01:22:54;;;;;;;4.18;0.88;;;;;;;12.60;79.53;100899.88;5073114;28;20071;-77
2023/10/03 01:25:27;;;;;;;4.90;1.10;;;;;;;12.58;79.48;100891.22;5070253;28;21649;-77
2023/10/03 01:27:54;;;;;;;3.40;1.02;;;;;;;12.53;79.24;100886.97;5070967;28;20049;-76
2023/10/03 01:30:21;;;;;;;8.43;1.15;;;;;;;12.55;79.20;100886.03;5073120;28;20679;-77
2023/10/03 01:32:53;;;;;;;6.80;1.27;;;;;;;12.55;79.33;100890.41;5073841;28;20680;-76
2023/10/03 01:35:22;;;;;;;6.63;1.13;;;;;;;12.53;79.36;100886.97;5063304;28;20057;-77
2023/10/03 01:37:50;;;;;;;12.23;1.50;;;;;;;12.52;79.50;100885.25;5061772;28;20064;-74
2023/10/03 01:40:17;;;;;;;8.65;1.67;;;;;;;12.51;79.13;100889.63;5068018;28;20057;-73
2023/10/03 01:42:47;;;;;;;3.30;1.13;;;;;;;12.49;79.21;100894.03;5070730;28;20047;-74
2023/10/03 01:45:17;;;;;;;9.82;2.13;;;;;;;12.48;79.34;100888.84;5071975;28;20058;-73
2023/10/03 01:47:47;;;;;;;5.32;1.33;;;;;;;12.47;79.24;100897.63;5069309;28;20326;-73
2023/10/03 01:50:15;;;;;;;6.10;1.38;;;;;;;12.44;79.49;100897.69;5066738;28;20041;-73
2023/10/03 01:52:42;;;;;;;3.88;1.00;;;;;;;12.44;79.20;100897.69;5069753;28;20040;-74
2023/10/03 01:55:11;;;;;;;3.97;2.00;;;;;;;12.38;79.17;100888.22;5042800;28;20128;-73
2023/10/03 01:57:38;;;;;;;5.53;0.90;;;;;;;12.41;79.02;100901.25;5064222;28;20048;-89
2023/10/03 02:00:21;;;;;;;4.63;1.20;;;;;;;12.40;79.13;100903.88;5067602;28;20040;-89
2023/10/03 02:02:48;;;;;;;6.95;1.40;;;;;;;12.38;79.23;100890.84;5073225;28;20048;-89
2023/10/03 02:05:16;;;;;;;6.70;1.15;;;;;;;12.31;79.36;100884.88;5075107;28;20041;-88
2023/10/03 02:07:45;;;;;;;6.32;1.27;;;;;;;12.34;79.13;100887.41;5070201;28;20090;-74
2023/10/03 02:10:12;;;;;;;7.22;1.40;;;;;;;12.33;79.19;100890.94;5070748;28;20136;-74
2023/10/03 02:12:48;;;;;;;6.05;1.20;;;;;;;12.32;79.22;100884.00;5064296;28;20572;-74
2023/10/03 02:15:20;;;;;;;3.83;1.15;;;;;;;12.31;79.41;100873.53;5073334;28;20071;-74
2023/10/03 02:17:49;;;;;;;3.95;1.30;;;;;;;12.28;79.38;100871.84;5062908;28;20420;-74
2023/10/03 02:20:20;;;;;;;7.78;1.08;;;;;;;12.28;79.42;100876.22;5073305;28;20045;-76
2023/10/03 02:22:53;;;;;;;4.00;1.45;;;;;;;12.27;79.47;100874.50;5041462;28;20849;-75
2023/10/03 02:25:22;;;;;;;5.53;1.50;;;;;;;12.25;79.57;100873.69;5063537;28;20067;-74
2023/10/03 02:27:50;;;;;;;4.50;1.35;;;;;;;12.23;79.54;100873.72;5068544;28;20032;-74
2023/10/03 02:30:23;;;;;;;6.22;1.33;;;;;;;12.21;79.49;100859.81;5070920;28;20044;-74
2023/10/03 02:32:53;;;;;;;3.92;1.27;;;;;;;12.21;79.47;100854.56;5069964;28;20045;-74
2023/10/03 02:35:22;;;;;;;3.70;1.15;;;;;;;12.21;79.59;100856.31;5067054;28;20056;-74
2023/10/03 02:37:51;;;;;;;5.05;1.60;;;;;;;12.19;79.57;100856.34;5063162;28;20052;-74
2023/10/03 02:40:22;;;;;;;9.93;1.33;;;;;;;12.18;79.71;100857.25;5070484;28;20083;-74
2023/10/03 02:42:51;;;;;;;9.45;1.27;;;;;;;12.17;79.74;100855.53;5070402;28;20052;-74
2023/10/03 02:45:22;;;;;;;2.35;1.17;;;;;;;12.18;80.06;100864.25;5061423;28;20142;-74
2023/10/03 02:47:50;;;;;;;3.92;1.67;;;;;;;12.15;79.97;100860.81;5073345;28;20036;-74
2023/10/03 02:50:17;;;;;;;10.73;1.45;;;;;;;12.16;80.00;100861.66;5067662;28;20801;-76
2023/10/03 02:52:46;;;;;;;10.95;1.42;;;;;;;12.15;79.97;100849.44;5068693;28;20045;-74
2023/10/03 02:55:14;;;;;;;6.88;1.10;;;;;;;12.15;80.14;100846.84;5062704;28;20052;-74
2023/10/03 02:57:41;;;;;;;7.35;1.15;;;;;;;12.15;80.05;100852.06;5066491;28;20087;-76
2023/10/03 03:00:12;;;;;;;14.43;1.95;;;;;;;12.15;80.21;100844.22;5068433;28;20544;-76
2023/10/03 03:02:42;;;;;;;7.45;1.73;;;;;;;12.14;80.15;100842.50;5067800;28;20671;-76
2023/10/03 03:05:11;;;;;;;12.82;1.88;;;;;;;12.12;80.17;100836.44;5072064;28;20041;-77
2023/10/03 03:07:38;;;;;;;7.40;1.65;;;;;;;12.13;80.08;100841.66;5075808;28;20398;-76
2023/10/03 03:10:08;;;;;;;10.23;1.88;;;;;;;12.12;80.21;100824.22;5068694;28;20048;-76
2023/10/03 03:12:36;;;;;;;4.32;1.45;;;;;;;12.13;80.09;100830.31;5067672;28;20047;-77
2023/10/03 03:15:07;;;;;;;5.15;1.25;;;;;;;12.12;80.18;100813.75;5063347;28;20045;-76
2023/10/03 03:17:33;;;;;;;7.32;1.58;;;;;;;12.12;80.17;100810.25;5072643;28;20446;-77
2023/10/03 03:20:18;;;;;;;3.15;2.03;;;;;;;12.11;80.20;100812.00;5073850;28;20048;-76
2023/10/03 03:22:47;;;;;;;2.83;1.05;;;;;;;12.11;80.22;100798.06;5069117;28;20044;-78
2023/10/03 03:25:19;;;;;;;6.30;1.58;;;;;;;12.10;80.11;100793.75;5071950;28;20519;-77
2023/10/03 03:27:46;;;;;;;9.73;1.50;;;;;;;12.08;80.29;100791.16;5061730;28;20045;-77
2023/10/03 03:30:33;;;;;;;3.97;1.67;;;;;;;12.10;80.28;100788.50;5071520;28;20048;-77
2023/10/03 03:33:01;;;;;;;13.50;2.58;;;;;;;12.09;80.39;100778.91;5067884;28;20063;-77
2023/10/03 03:35:29;;;;;;;7.03;1.42;;;;;;;12.08;80.38;100779.81;5062895;28;20468;-76
2023/10/03 03:37:57;;;;;;;9.30;1.40;;;;;;;12.06;80.29;100771.13;5071375;28;20700;-77
2023/10/03 03:40:31;;;;;;;6.50;1.60;;;;;;;12.08;80.44;100782.44;5068485;28;21297;-77
2023/10/03 03:43:00;;;;;;;6.53;1.55;;;;;;;12.07;80.48;100783.34;5076646;28;20054;-77
2023/10/03 03:45:27;;;;;;;6.57;1.65;;;;;;;12.10;80.48;100788.50;5062292;28;20048;-77
2023/10/03 03:47:54;;;;;;;4.65;1.30;;;;;;;12.09;80.46;100794.63;5069337;28;20052;-77
2023/10/03 03:50:22;;;;;;;8.57;1.52;;;;;;;12.09;80.38;100792.00;5067863;28;20049;-77
2023/10/03 03:52:51;;;;;;;8.20;1.65;;;;;;;12.07;80.46;100785.97;5074190;28;20052;-77
2023/10/03 03:55:19;;;;;;;6.07;1.45;;;;;;;12.08;80.49;100785.06;5065477;28;20073;-77
2023/10/03 03:57:46;;;;;;;9.93;1.98;;;;;;;12.07;80.50;100789.44;5071991;28;20477;-77
2023/10/03 04:00:22;;;;;;;4.47;1.77;;;;;;;12.06;80.45;100779.84;5070078;28;20044;-77
2023/10/03 04:02:49;;;;;;;7.90;1.88;;;;;;;12.03;80.62;100782.53;5060632;28;20595;-77
2023/10/03 04:05:17;;;;;;;7.80;1.90;;;;;;;12.04;80.69;100781.66;5066593;28;20041;-77
2023/10/03 04:07:45;;;;;;;5.38;2.00;;;;;;;12.07;80.63;100776.34;5065995;28;20427;-89
2023/10/03 04:10:13;;;;;;;10.45;1.63;;;;;;;12.07;80.71;100772.88;5069908;28;20127;-85
2023/10/03 04:12:41;;;;;;;8.70;1.65;;;;;;;12.06;80.49;100776.38;5073100;28;20060;-87
2023/10/03 04:15:12;;;;;;;6.18;1.52;;;;;;;12.08;80.78;100769.34;5063539;28;20072;-89
2023/10/03 04:17:40;;;;;;;6.80;2.03;;;;;;;12.08;80.65;100769.34;5075423;28;20492;-85
2023/10/03 04:20:19;;;;;;;3.65;1.50;;;;;;;12.07;80.75;100762.41;5070347;28;20072;-86
2023/10/03 04:22:47;;;;;;;7.70;1.70;;;;;;;12.08;80.82;100761.50;5075809;28;21003;-85
2023/10/03 04:25:19;;;;;;;6.00;1.42;;;;;;;11.97;81.00;100734.72;5076620;28;20140;-86
2023/10/03 04:27:48;;;;;;;5.45;1.95;;;;;;;11.98;80.87;100733.81;5074371;28;20040;-89
2023/10/03 04:30:15;;;;;;;10.15;1.55;;;;;;;12.07;80.86;100749.31;5070321;28;20048;-89
2023/10/03 04:32:43;;;;;;;8.05;1.52;;;;;;;12.08;80.91;100749.25;5071645;28;20053;-86
2023/10/03 04:35:13;;;;;;;4.82;1.50;;;;;;;12.08;80.78;100743.16;5075718;28;20056;-86
2023/10/03 04:37:42;;;;;;;5.43;2.03;;;;;;;12.08;80.82;100744.00;5066759;28;20070;-86
2023/10/03 04:40:10;;;;;;;12.48;2.28;;;;;;;12.08;80.93;100743.16;5077162;28;20055;-87
2023/10/03 04:42:40;;;;;;;9.32;2.25;;;;;;;12.08;80.76;100738.78;5063956;28;20040;-89
2023/10/03 04:45:10;;;;;;;7.10;1.75;;;;;;;12.09;80.46;100731.78;5076214;28;20056;-87
2023/10/03 04:47:38;;;;;;;7.22;1.40;;;;;;;12.08;80.97;100728.31;5070877;28;20037;-85
2023/10/03 04:50:06;;;;;;;6.70;1.38;;;;;;;12.08;80.94;100732.69;5065500;28;20449;-86
2023/10/03 04:52:32;;;;;;;7.90;1.67;;;;;;;12.08;80.92;100735.31;5083351;28;20473;-87
2023/10/03 04:54:59;;;;;;;9.00;1.90;;;;;;;12.06;81.00;100731.84;5076681;28;20045;-87
2023/10/03 04:57:28;;;;;;;9.02;1.67;;;;;;;12.04;81.05;100721.44;5077842;28;20499;-83
2023/10/03 04:59:57;;;;;;;9.45;2.10;;;;;;;12.09;80.94;100735.25;5076738;28;20051;-84
2023/10/03 05:02:24;;;;;;;11.68;2.67;;;;;;;12.10;81.05;100730.91;5078420;28;20607;-84
2023/10/03 05:04:51;;;;;;;9.32;1.45;;;;;;;12.11;80.94;100732.59;5074929;28;20068;-91
2023/10/03 05:07:18;;;;;;;9.90;1.52;;;;;;;12.09;80.98;100723.91;5063596;28;20103;-90
2023/10/03 05:09:45;;;;;;;7.25;1.95;;;;;;;12.11;81.01;100727.38;5068207;28;20500;-89
2023/10/03 05:12:12;;;;;;;7.88;1.60;;;;;;;12.11;80.98;100728.22;5066291;28;20107;-90
2023/10/03 05:14:41;;;;;;;8.27;1.83;;;;;;;11.99;80.98;100711.97;5075153;28;20082;-88
2023/10/03 05:17:09;;;;;;;6.45;1.58;;;;;;;12.10;81.04;100720.44;5069146;28;20102;-73
2023/10/03 05:19:37;;;;;;;7.72;1.90;;;;;;;12.12;80.87;100718.59;5067756;28;20458;-73
2023/10/03 05:22:05;;;;;;;7.68;3.05;;;;;;;12.12;80.98;100713.38;5076486;28;20055;-74
2023/10/03 05:24:33;;;;;;;5.07;1.77;;;;;;;12.13;81.06;100730.81;5068205;28;20044;-75
2023/10/03 05:27:00;;;;;;;7.95;2.58;;;;;;;12.13;81.02;100729.06;5066471;28;20052;-74
2023/10/03 05:29:27;;;;;;;6.40;2.03;;;;;;;12.13;81.10;100733.44;5061198;28;20135;-75
2023/10/03 05:31:54;;;;;;;8.90;2.25;;;;;;;12.13;81.00;100725.59;5071480;28;20067;-76
2023/10/03 05:34:23;;;;;;;7.53;1.70;;;;;;;12.14;81.00;100714.19;5068254;28;20048;-74
2023/10/03 05:36:50;;;;;;;8.95;1.88;;;;;;;12.14;81.11;100716.81;5074854;28;20404;-77
2023/10/03 05:39:19;;;;;;;6.13;1.50;;;;;;;12.14;81.06;100701.09;5069530;28;20583;-77
2023/10/03 05:41:45;;;;;;;8.40;1.38;;;;;;;12.14;81.11;100701.97;5078276;28;20455;-77
2023/10/03 05:44:12;;;;;;;9.65;2.30;;;;;;;12.14;81.09;100701.97;5074190;28;20053;-77
2023/10/03 05:46:40;;;;;;;4.38;1.13;;;;;;;12.15;81.18;100705.44;5063939;28;20052;-78
2023/10/03 05:49:08;;;;;;;10.60;2.47;;;;;;;12.17;81.37;100705.41;5074993;28;20052;-77
2023/10/03 05:51:36;;;;;;;8.15;1.70;;;;;;;12.16;81.31;100696.69;5073701;28;20046;-78
2023/10/03 05:54:05;;;;;;;4.78;1.60;;;;;;;12.12;81.18;100693.31;5076058;28;20113;-78
2023/10/03 05:56:32;;;;;;;9.25;2.20;;;;;;;12.18;81.23;100702.75;5068214;28;20051;-78
2023/10/03 05:59:01;;;;;;;5.85;1.95;;;;;;;12.18;81.23;100694.91;5073529;28;20056;-77
2023/10/03 06:01:28;;;;;;;8.32;1.90;;;;;;;12.18;81.48;100697.53;5064736;28;20052;-77
2023/10/03 06:03:56;;;;;;;10.18;2.67;;;;;;;12.19;81.46;100696.63;5070964;28;20049;-78
2023/10/03 06:06:23;;;;;;;8.27;1.95;;;;;;;12.20;81.48;100694.84;5064857;28;20722;-78
2023/10/03 06:08:51;;;;;;;12.82;2.63;;;;;;;12.21;81.61;100696.56;5067427;28;20041;-78
2023/10/03 06:11:19;;;;;;;10.88;2.03;;;;;;;12.22;81.37;100698.28;5062069;28;20041;-78
2023/10/03 06:13:46;;;;;;;6.55;2.80;;;;;;;12.23;81.59;100700.84;5074182;28;20605;-77
2023/10/03 06:16:14;;;;;;;19.77;2.85;;;;;;;12.19;81.61;100691.38;5066655;28;20049;-78
2023/10/03 06:18:42;;;;;;;5.85;2.38;;;;;;;12.20;81.59;100687.84;5050698;28;20048;-78
2023/10/03 06:21:09;;;;;;;10.15;1.90;;;;;;;12.26;81.62;100689.44;5074262;28;20052;-79
2023/10/03 06:23:37;;;;;;;6.57;1.90;;;;;;;12.25;81.80;100688.59;5070094;28;20050;-77
2023/10/03 06:26:05;;;;;;;7.30;2.42;;;;;;;12.27;81.73;100696.41;5073147;28;20469;-77
2023/10/03 06:28:32;;;;;;;7.53;1.90;;;;;;;12.28;81.65;100704.22;5072759;28;20048;-76
2023/10/03 06:30:59;;;;;;;4.22;1.85;;;;;;;12.30;81.81;100705.03;5068898;28;20049;-76
2023/10/03 06:33:27;;;;;;;5.43;1.98;;;;;;;12.31;81.75;100704.13;5071009;28;20040;-76
2023/10/03 06:35:54;;;;;;;8.35;1.83;;;;;;;12.33;81.86;100693.63;5066012;28;20048;-76
2023/10/03 06:38:22;;;;;;;7.70;1.85;;;;;;;12.34;82.04;100693.56;5072458;28;20532;-76
2023/10/03 06:40:49;;;;;;;7.28;2.33;;;;;;;12.34;81.93;100687.47;5061122;28;20115;-77
2023/10/03 06:43:18;;;;;;;7.25;1.73;;;;;;;12.36;82.10;100690.94;5065114;28;20041;-77
2023/10/03 06:45:44;;;;;;;9.73;2.33;;;;;;;12.35;82.00;100682.22;5061083;28;21199;-77
2023/10/03 06:48:11;;;;;;;7.63;2.10;;;;;;;12.40;82.15;100679.44;5067113;28;20048;-78
2023/10/03 06:50:38;;;;;;;8.93;2.63;;;;;;;12.41;82.20;100678.56;5063073;28;20049;-78
2023/10/03 06:53:06;;;;;;;8.18;2.40;;;;;;;12.43;82.21;100676.75;5062798;28;20048;-78
2023/10/03 06:55:35;;;;;;;9.50;2.22;;;;;;;12.43;82.17;100678.50;5067684;28;20044;-78
2023/10/03 06:58:02;;;;;;;8.70;1.88;;;;;;;12.38;82.19;100669.03;5070942;28;20056;-78
2023/10/03 07:00:32;;;;;;;7.15;1.90;;;;;;;12.48;82.32;100679.25;5061618;28;20078;-78
2023/10/03 07:03:03;;;;;;;9.38;2.42;;;;;;;12.50;82.19;100682.69;5064372;28;20093;-77
2023/10/03 07:05:30;;;;;;;12.48;2.20;;;;;;;12.41;82.38;100661.97;5069169;28;20489;-77
2023/10/03 07:07:57;;;;;;;6.35;2.00;;;;;;;12.47;82.30;100670.53;5063711;28;20055;-78
2023/10/03 07:10:25;;;;;;;10.52;1.90;;;;;;;12.55;82.47;100671.19;5074793;28;20052;-76
2023/10/03 07:12:52;;;;;;;6.85;1.60;;;;;;;12.54;82.34;100661.59;5064195;28;20074;-77
2023/10/03 07:15:18;;;;;;;9.15;2.83;;;;;;;12.59;82.26;100671.94;5063562;28;20127;-77
2023/10/03 07:17:47;;;;;;;10.80;2.65;;;;;;;12.60;82.48;100660.53;5063849;28;20044;-78
2023/10/03 07:20:14;;;;;;;8.90;2.05;;;;;;;12.64;82.38;100663.97;5071234;28;20105;-78
2023/10/03 07:22:42;;;;;;;4.63;2.25;;;;;;;12.66;82.51;100646.41;5061151;28;20045;-77
2023/10/03 07:25:09;;;;;;;7.68;2.30;;;;;;;12.68;82.58;100650.72;5076596;28;20041;-77
2023/10/03 07:27:37;;;;;;;8.93;3.35;;;;;;;12.70;82.45;100651.53;5064069;28;20717;-78
2023/10/03 07:30:04;;;;;;;11.13;2.42;;;;;;;12.69;82.33;100647.16;5070670;28;20044;-77
2023/10/03 07:32:32;;;;;;;7.65;3.08;;;;;;;12.74;82.52;100647.91;5071986;28;20505;-78
2023/10/03 07:35:01;;;;;;;13.05;2.33;;;;;;;12.72;82.63;100641.00;5069342;28;20076;-77
2023/10/03 07:37:28;;;;;;;10.95;2.45;;;;;;;12.80;82.55;100641.63;5063569;28;20044;-77
2023/10/03 07:39:55;;;;;;;6.72;2.40;;;;;;;12.82;82.46;100639.81;5069666;28;20060;-77
2023/10/03 07:42:23;;;;;;;16.63;2.83;;;;;;;12.85;82.46;100641.50;5066419;28;20888;-76
2023/10/03 07:44:52;;;;;;;9.98;3.08;;;;;;;12.88;82.36;100637.00;5073115;28;20489;-75
2023/10/03 07:47:20;;;;;;;9.88;2.60;;;;;;;12.91;82.30;100636.06;5057711;28;20048;-76
2023/10/03 07:49:48;;;;;;;11.20;2.60;;;;;;;12.92;82.29;100628.16;5069181;28;20051;-76
2023/10/03 07:52:18;;;;;;;7.90;2.25;;;;;;;12.96;82.16;100614.03;5067922;28;20049;-77
2023/10/03 07:54:49;;;;;;;13.25;2.50;;;;;;;12.98;82.29;100611.38;5066523;28;20063;-76
2023/10/03 07:57:16;;;;;;;7.95;2.50;;;;;;;12.97;82.00;100609.66;5069430;28;20070;-76
2023/10/03 07:59:43;;;;;;;11.02;2.08;;;;;;;13.04;82.00;100608.56;5065436;28;20080;-76
2023/10/03 08:02:11;;;;;;;6.50;3.10;;;;;;;13.07;81.96;100610.25;5067692;28;20047;-76
2023/10/03 08:04:40;;;;;;;5.00;2.22;;;;;;;13.09;81.86;100609.28;5062967;28;20044;-77
2023/10/03 08:07:08;;;;;;;9.80;2.10;;;;;;;13.12;81.83;100603.06;5071852;28;20089;-76
2023/10/03 08:09:36;;;;;;;12.27;2.70;;;;;;;13.13;81.69;100605.66;5063732;28;20044;-77
2023/10/03 08:12:11;;;;;;;6.93;2.38;;;;;;;13.17;81.75;100595.91;5072652;28;20067;-77
2023/10/03 08:14:43;;;;;;;9.65;2.03;;;;;;;13.18;81.84;100590.63;5068830;28;20040;-76
2023/10/03 08:17:11;;;;;;;16.02;2.58;;;;;;;13.20;81.57;100588.78;5074161;28;20040;-78
2023/10/03 08:19:40;;;;;;;16.15;2.47;;;;;;;13.23;81.45;100585.22;5063759;28;20044;-76
2023/10/03 08:22:12;;;;;;;12.18;3.78;;;;;;;13.23;81.31;100575.59;5062351;28;20044;-76
2023/10/03 08:24:43;;;;;;;9.98;2.08;;;;;;;13.28;81.30;100572.84;5069994;28;20080;-77
2023/10/03 08:27:18;;;;;;;9.70;2.67;;;;;;;13.31;81.28;100579.75;5068173;28;20044;-77
2023/10/03 08:29:45;;;;;;;10.40;2.65;;;;;;;13.33;81.42;100570.09;5066809;28;20045;-76
2023/10/03 08:32:16;;;;;;;11.25;2.63;;;;;;;13.35;81.58;100560.38;5055549;28;20062;-76
2023/10/03 08:34:44;;;;;;;15.95;1.98;;;;;;;13.38;81.20;100561.16;5062131;28;20063;-77
2023/10/03 08:37:21;;;;;;;10.02;2.72;;;;;;;13.36;81.19;100556.88;5051567;28;20961;-76
2023/10/03 08:39:49;;;;;;;7.90;2.75;;;;;;;13.42;81.07;100554.88;5066597;28;20052;-75
2023/10/03 08:42:18;;;;;;;9.52;2.60;;;;;;;13.44;80.89;100542.56;5053027;28;20099;-76
2023/10/03 08:44:53;;;;;;;6.85;1.98;;;;;;;13.47;80.70;100544.25;5061280;28;20734;-76
2023/10/03 08:47:28;;;;;;;10.15;2.10;;;;;;;13.48;80.64;100541.56;5060253;28;20081;-73
2023/10/03 08:50:10;;;;;;;10.38;2.50;;;;;;;13.51;80.70;100537.97;5063695;28;20056;-73
2023/10/03 08:52:44;;;;;;;9.07;1.80;;;;;;;13.53;80.40;100530.91;5063021;28;20153;-73
2023/10/03 08:55:14;;;;;;;10.70;2.65;;;;;;;13.55;80.43;100522.97;5057213;28;20129;-73
2023/10/03 08:57:41;;;;;;;16.70;2.92;;;;;;;13.53;80.18;100509.91;5062127;28;20402;-73
2023/10/03 09:00:09;;;;;;;8.80;2.00;;;;;;;13.59;80.54;100509.69;5057096;28;20044;-73
2023/10/03 09:02:45;;;;;;;8.90;2.47;;;;;;;13.62;80.26;100512.22;5063732;28;20052;-73
2023/10/03 09:05:19;;;;;;;12.50;3.58;;;;;;;13.63;80.30;100511.31;5066796;28;20675;-73
2023/10/03 09:07:46;;;;;;;7.15;1.67;;;;;;;13.66;80.16;100510.31;5062721;28;20159;-73
2023/10/03 09:10:22;;;;;;;7.53;1.63;;;;;;;13.68;79.84;100506.75;5069679;28;20043;-73
2023/10/03 09:12:51;;;;;;;5.72;1.67;;;;;;;13.70;79.99;100502.28;5061431;28;20454;-73
2023/10/03 09:15:18;;;;;;;7.97;1.60;;;;;;;13.71;79.43;100496.13;5068944;28;20044;-73
2023/10/03 09:17:49;;;;;;;7.80;2.10;;;;;;;13.74;79.54;100489.91;5063532;28;20084;-73
2023/10/03 09:20:21;;;;;;;11.20;2.53;;;;;;;13.77;79.64;100495.06;5069477;28;20044;-73
2023/10/03 09:22:48;;;;;;;11.57;1.95;;;;;;;13.78;79.46;100499.41;5062313;28;20044;-73
2023/10/03 09:25:19;;;;;;;13.88;2.53;;;;;;;13.81;79.94;100503.69;5067588;28;20055;-73
2023/10/03 09:27:46;;;;;;;9.30;2.60;;;;;;;13.81;79.58;100498.44;5060243;28;20048;-73
2023/10/03 09:30:23;;;;;;;9.27;2.45;;;;;;;13.84;79.64;100499.19;5061357;28;20509;-73
2023/10/03 09:32:51;;;;;;;14.00;2.30;;;;;;;13.86;79.36;100496.47;5066549;28;20052;-73
2023/10/03 09:35:18;;;;;;;11.85;2.70;;;;;;;13.86;79.45;100497.38;5063703;28;20070;-74
2023/10/03 09:37:48;;;;;;;11.18;1.63;;;;;;;13.88;79.40;100498.16;5068886;28;20094;-73
2023/10/03 09:40:19;;;;;;;10.68;2.15;;;;;;;13.91;79.61;100499.81;5062549;28;20143;-73
2023/10/03 09:42:48;;;;;;;5.43;1.58;;;;;;;13.92;79.31;100501.53;5065591;28;20610;-74
2023/10/03 09:45:18;;;;;;;9.32;2.10;;;;;;;13.93;79.04;100498.84;5057209;28;20044;-73
2023/10/03 09:47:46;;;;;;;9.93;2.08;;;;;;;13.94;79.20;100495.31;5072450;28;20519;-73
2023/10/03 09:50:14;;;;;;;8.90;1.98;;;;;;;13.93;79.11;100487.47;5064996;28;20068;-75
2023/10/03 09:52:44;;;;;;;11.63;1.35;;;;;;;13.95;79.07;100476.00;5074560;28;20914;-73
2023/10/03 09:57:59;;;;;;;6.88;2.22;;;;;;;13.99;79.16;100466.25;5068614;28;20159;-75
2023/10/03 10:00:41;;;;;;;8.77;2.33;;;;;;;13.97;78.98;100452.31;5070721;28;20420;-76
2023/10/03 10:03:12;;;;;;;12.02;2.33;;;;;;;14.01;79.18;100459.16;5059957;28;20048;-74
2023/10/03 10:05:49;;;;;;;11.85;1.90;;;;;;;14.02;79.19;100453.00;5066547;28;20048;-75
2023/10/03 10:08:29;;;;;;;5.90;1.60;;;;;;;14.03;79.24;100446.84;5066524;28;20044;-75
2023/10/03 10:11:09;;;;;;;7.70;2.00;;;;;;;14.03;79.38;100438.09;5065848;28;20044;-75
2023/10/03 10:13:44;;;;;;;11.18;2.20;;;;;;;14.05;79.37;100434.50;5066458;28;20455;-74
2023/10/03 10:16:13;;;;;;;9.70;1.50;;;;;;;14.07;79.33;100432.66;5060582;28;20413;-75
2023/10/03 10:18:58;;;;;;;15.05;3.10;;;;;;;14.05;79.34;100418.72;5069035;28;20052;-76
2023/10/03 10:21:30;;;;;;;8.85;2.55;;;;;;;14.08;79.38;100408.09;5067742;28;20055;-76
2023/10/03 10:24:24;;;;;;;10.02;2.05;;;;;;;14.10;79.33;100408.91;5069206;28;20055;-77
2023/10/03 10:26:53;;;;;;;6.80;1.67;;;;;;;14.11;79.49;100407.13;5065183;28;20389;-76
2023/10/03 10:29:23;;;;;;;6.95;2.30;;;;;;;14.10;79.56;100401.03;5066656;28;20456;-76
2023/10/03 10:31:57;;;;;;;15.32;2.25;;;;;;;14.12;79.50;100387.84;5068027;28;20124;-76
2023/10/03 10:34:35;;;;;;;7.47;1.83;;;;;;;14.13;79.67;100379.03;5062863;28;20040;-76
2023/10/03 10:37:04;;;;;;;9.80;1.92;;;;;;;14.13;79.63;100387.78;5059902;28;20048;-76
2023/10/03 10:40:17;;;;;;;6.38;1.83;;;;;;;14.15;79.51;100380.69;5068837;28;20070;-77
2023/10/03 10:43:01;;;;;;;5.60;1.00;;;;;;;14.16;79.54;100378.94;4987023;28;20049;-76
2023/10/03 10:45:37;;;;;;;8.30;1.77;;;;;;;14.14;79.72;100367.63;4977826;28;20047;-77
2023/10/03 10:48:05;;;;;;;8.77;1.85;;;;;;;14.14;79.89;100363.25;5046604;28;20476;-76
2023/10/03 10:51:07;;;;;;;4.90;1.10;;;;;;;14.18;79.68;100359.56;5035629;28;20048;-76
2023/10/03 10:53:40;;;;;;;8.32;1.52;;;;;;;14.13;79.87;100350.16;5064773;28;20037;-77
2023/10/03 10:56:09;;;;;;;8.23;1.38;;;;;;;14.18;79.66;100356.94;5062429;28;20041;-76
2023/10/03 10:58:50;;;;;;;9.57;1.63;;;;;;;14.20;79.60;100353.38;5063588;28;20045;-76
2023/10/03 11:01:19;;;;;;;7.20;1.38;;;;;;;14.17;79.61;100349.09;5062223;28;20049;-76
2023/10/03 11:03:47;;;;;;;9.60;1.63;;;;;;;14.20;79.88;100346.34;5064802;28;20076;-77
2023/10/03 11:06:18;;;;;;;5.57;1.30;;;;;;;14.21;79.79;100342.81;5058308;28;20115;-76
2023/10/03 11:08:48;;;;;;;15.13;2.42;;;;;;;14.20;79.75;100337.63;5063126;28;20420;-74
2023/10/03 11:11:15;;;;;;;10.55;1.48;;;;;;;14.22;79.98;100338.41;5062950;28;20095;-74
2023/10/03 11:13:49;;;;;;;9.98;2.22;;;;;;;14.22;79.94;100346.31;5063117;28;20044;-74
2023/10/03 11:16:28;;;;;;;5.28;1.15;;;;;;;14.23;79.69;100342.75;5066437;28;20070;-75
2023/10/03 11:18:56;;;;;;;13.32;1.85;;;;;;;14.21;79.82;100323.59;5068210;28;20052;-74
2023/10/03 11:21:24;;;;;;;14.50;2.20;;;;;;;14.23;79.98;100322.63;5059693;28;20052;-75
2023/10/03 11:24:14;;;;;;;10.55;2.22;;;;;;;14.25;79.83;100314.66;5064573;28;20413;-75
2023/10/03 11:26:43;;;;;;;11.95;1.98;;;;;;;14.22;79.85;100312.16;5058191;28;20060;-76
2023/10/03 11:29:11;;;;;;;11.02;1.83;;;;;;;14.24;79.92;100307.69;5069360;28;20605;-87
2023/10/03 11:31:40;;;;;;;4.78;1.65;;;;;;;14.24;79.72;100297.19;5066374;28;20040;-87
2023/10/03 11:34:08;;;;;;;12.23;2.22;;;;;;;14.25;79.82;100299.75;5071972;28;20481;-87
2023/10/03 11:36:42;;;;;;;7.78;1.05;;;;;;;14.12;79.83;100256.53;5064377;28;20507;-88
2023/10/03 11:39:11;;;;;;;6.22;1.77;;;;;;;14.24;79.88;100287.53;5067236;28;20109;-88